sensor_id;sensor_type;location;lat;lon;timestamp;P1;durP1;ratioP1;P2;durP2;ratioP2
69985;SDS011;57328;52.054;5.294;2022-12-07T00:01:33;14.70;;;6.15;;
69985;SDS011;57328;52.054;5.294;2022-12-07T00:04:01;12.52;;;5.68;;
69985;SDS011;57328;52.054;5.294;2022-12-07T00:06:39;11.50;;;4.70;;
69985;SDS011;57328;52.054;5.294;2022-12-07T00:09:07;13.27;;;4.88;;
69985;SDS011;57328;52.054;5.294;2022-12-07T00:11:36;11.57;;;4.18;;
69985;SDS011;57328;52.054;5.294;2022-12-07T00:14:05;10.80;;;4.15;;
69985;SDS011;57328;52.054;5.294;2022-12-07T00:16:33;13.07;;;4.45;;
69985;SDS011;57328;52.054;5.294;2022-12-07T00:19:01;11.63;;;4.53;;
69985;SDS011;57328;52.054;5.294;2022-12-07T00:21:30;11.20;;;4.32;;
69985;SDS011;57328;52.054;5.294;2022-12-07T00:23:58;12.45;;;4.75;;
69985;SDS011;57328;52.054;5.294;2022-12-07T00:26:29;12.80;;;5.43;;
69985;SDS011;57328;52.054;5.294;2022-12-07T00:29:01;20.27;;;5.93;;
69985;SDS011;57328;52.054;5.294;2022-12-07T00:31:29;9.43;;;4.95;;
69985;SDS011;57328;52.054;5.294;2022-12-07T00:33:57;15.07;;;6.38;;
69985;SDS011;57328;52.054;5.294;2022-12-07T00:36:24;11.02;;;4.90;;
69985;SDS011;57328;52.054;5.294;2022-12-07T00:38:53;12.48;;;5.53;;
69985;SDS011;57328;52.054;5.294;2022-12-07T00:41:22;12.00;;;5.10;;
69985;SDS011;57328;52.054;5.294;2022-12-07T00:43:49;11.13;;;4.40;;
69985;SDS011;57328;52.054;5.294;2022-12-07T00:46:17;11.55;;;4.45;;
69985;SDS011;57328;52.054;5.294;2022-12-07T00:48:45;11.27;;;4.20;;
69985;SDS011;57328;52.054;5.294;2022-12-07T00:51:13;11.60;;;4.78;;
69985;SDS011;57328;52.054;5.294;2022-12-07T00:53:40;11.15;;;4.50;;
69985;SDS011;57328;52.054;5.294;2022-12-07T00:56:08;9.88;;;4.97;;
69985;SDS011;57328;52.054;5.294;2022-12-07T00:58:36;14.10;;;4.82;;
69985;SDS011;57328;52.054;5.294;2022-12-07T01:01:03;10.55;;;4.97;;
69985;SDS011;57328;52.054;5.294;2022-12-07T01:03:31;10.60;;;4.85;;
69985;SDS011;57328;52.054;5.294;2022-12-07T01:05:58;13.43;;;5.57;;
69985;SDS011;57328;52.054;5.294;2022-12-07T01:08:26;16.27;;;6.30;;
69985;SDS011;57328;52.054;5.294;2022-12-07T01:13:27;12.10;;;5.30;;
69985;SDS011;57328;52.054;5.294;2022-12-07T01:15:56;11.32;;;4.85;;
69985;SDS011;57328;52.054;5.294;2022-12-07T01:23:27;11.60;;;5.53;;
69985;SDS011;57328;52.054;5.294;2022-12-07T01:25:55;12.25;;;5.70;;
69985;SDS011;57328;52.054;5.294;2022-12-07T01:28:22;9.27;;;4.70;;
69985;SDS011;57328;52.054;5.294;2022-12-07T01:33:47;10.18;;;4.60;;
69985;SDS011;57328;52.054;5.294;2022-12-07T01:36:15;13.23;;;4.68;;
69985;SDS011;57328;52.054;5.294;2022-12-07T01:38:43;11.52;;;4.60;;
69985;SDS011;57328;52.054;5.294;2022-12-07T01:41:10;11.65;;;5.80;;
69985;SDS011;57328;52.054;5.294;2022-12-07T01:44:07;9.55;;;4.50;;
69985;SDS011;57328;52.054;5.294;2022-12-07T01:46:28;12.35;;;5.40;;
69985;SDS011;57328;52.054;5.294;2022-12-07T01:48:55;12.50;;;5.75;;
69985;SDS011;57328;52.054;5.294;2022-12-07T01:51:22;11.75;;;5.38;;
69985;SDS011;57328;52.054;5.294;2022-12-07T01:53:49;10.60;;;4.97;;
69985;SDS011;57328;52.054;5.294;2022-12-07T01:56:17;13.82;;;5.50;;
69985;SDS011;57328;52.054;5.294;2022-12-07T01:58:46;12.77;;;5.30;;
69985;SDS011;57328;52.054;5.294;2022-12-07T02:01:14;14.75;;;5.55;;
69985;SDS011;57328;52.054;5.294;2022-12-07T02:03:42;10.25;;;4.60;;
69985;SDS011;57328;52.054;5.294;2022-12-07T02:06:10;11.75;;;4.75;;
69985;SDS011;57328;52.054;5.294;2022-12-07T02:08:38;11.15;;;5.13;;
69985;SDS011;57328;52.054;5.294;2022-12-07T02:11:05;12.10;;;5.32;;
69985;SDS011;57328;52.054;5.294;2022-12-07T02:13:34;14.98;;;5.95;;
69985;SDS011;57328;52.054;5.294;2022-12-07T02:18:38;11.55;;;5.30;;
69985;SDS011;57328;52.054;5.294;2022-12-07T02:23:39;10.98;;;4.70;;
69985;SDS011;57328;52.054;5.294;2022-12-07T02:28:49;12.73;;;4.88;;
69985;SDS011;57328;52.054;5.294;2022-12-07T02:31:18;11.20;;;4.30;;
69985;SDS011;57328;52.054;5.294;2022-12-07T02:33:53;10.07;;;4.50;;
69985;SDS011;57328;52.054;5.294;2022-12-07T02:36:25;13.43;;;5.18;;
69985;SDS011;57328;52.054;5.294;2022-12-07T02:39:00;19.73;;;5.22;;
69985;SDS011;57328;52.054;5.294;2022-12-07T02:41:33;9.98;;;4.53;;
69985;SDS011;57328;52.054;5.294;2022-12-07T02:44:06;9.48;;;4.43;;
69985;SDS011;57328;52.054;5.294;2022-12-07T02:46:36;9.15;;;4.45;;
69985;SDS011;57328;52.054;5.294;2022-12-07T02:49:04;9.70;;;4.10;;
69985;SDS011;57328;52.054;5.294;2022-12-07T02:51:32;10.23;;;4.18;;
69985;SDS011;57328;52.054;5.294;2022-12-07T02:53:59;11.20;;;4.28;;
69985;SDS011;57328;52.054;5.294;2022-12-07T02:56:32;10.95;;;4.35;;
69985;SDS011;57328;52.054;5.294;2022-12-07T03:01:32;10.23;;;4.57;;
69985;SDS011;57328;52.054;5.294;2022-12-07T03:06:53;8.93;;;4.13;;
69985;SDS011;57328;52.054;5.294;2022-12-07T03:09:22;11.52;;;4.55;;
69985;SDS011;57328;52.054;5.294;2022-12-07T03:12:01;10.63;;;4.40;;
69985;SDS011;57328;52.054;5.294;2022-12-07T03:14:34;14.07;;;3.95;;
69985;SDS011;57328;52.054;5.294;2022-12-07T03:17:07;10.63;;;4.10;;
69985;SDS011;57328;52.054;5.294;2022-12-07T03:19:37;8.00;;;3.97;;
69985;SDS011;57328;52.054;5.294;2022-12-07T03:22:07;10.18;;;4.70;;
69985;SDS011;57328;52.054;5.294;2022-12-07T03:24:37;11.73;;;4.70;;
69985;SDS011;57328;52.054;5.294;2022-12-07T03:27:10;11.07;;;4.57;;
69985;SDS011;57328;52.054;5.294;2022-12-07T03:29:43;16.77;;;4.82;;
69985;SDS011;57328;52.054;5.294;2022-12-07T03:32:14;10.68;;;4.53;;
69985;SDS011;57328;52.054;5.294;2022-12-07T03:34:47;9.35;;;4.05;;
69985;SDS011;57328;52.054;5.294;2022-12-07T03:40:07;10.13;;;4.10;;
69985;SDS011;57328;52.054;5.294;2022-12-07T03:42:37;10.95;;;4.53;;
69985;SDS011;57328;52.054;5.294;2022-12-07T03:45:04;10.85;;;4.20;;
69985;SDS011;57328;52.054;5.294;2022-12-07T03:47:33;11.38;;;3.95;;
69985;SDS011;57328;52.054;5.294;2022-12-07T03:54:57;12.75;;;4.10;;
69985;SDS011;57328;52.054;5.294;2022-12-07T03:57:25;9.20;;;4.22;;
69985;SDS011;57328;52.054;5.294;2022-12-07T03:59:54;10.18;;;3.80;;
69985;SDS011;57328;52.054;5.294;2022-12-07T04:02:23;10.93;;;4.32;;
69985;SDS011;57328;52.054;5.294;2022-12-07T04:04:51;11.77;;;4.10;;
69985;SDS011;57328;52.054;5.294;2022-12-07T04:07:18;10.75;;;4.30;;
69985;SDS011;57328;52.054;5.294;2022-12-07T04:09:45;11.27;;;4.53;;
69985;SDS011;57328;52.054;5.294;2022-12-07T04:12:13;8.50;;;3.88;;
69985;SDS011;57328;52.054;5.294;2022-12-07T04:14:40;8.77;;;4.28;;
69985;SDS011;57328;52.054;5.294;2022-12-07T04:17:08;10.38;;;4.43;;
69985;SDS011;57328;52.054;5.294;2022-12-07T04:19:35;9.15;;;3.80;;
69985;SDS011;57328;52.054;5.294;2022-12-07T04:22:03;9.95;;;4.32;;
69985;SDS011;57328;52.054;5.294;2022-12-07T04:24:31;7.68;;;4.03;;
69985;SDS011;57328;52.054;5.294;2022-12-07T04:26:58;7.88;;;3.50;;
69985;SDS011;57328;52.054;5.294;2022-12-07T04:29:25;10.13;;;3.50;;
69985;SDS011;57328;52.054;5.294;2022-12-07T04:31:53;8.07;;;4.15;;
69985;SDS011;57328;52.054;5.294;2022-12-07T04:34:20;8.48;;;3.70;;
69985;SDS011;57328;52.054;5.294;2022-12-07T04:36:47;9.82;;;4.05;;
69985;SDS011;57328;52.054;5.294;2022-12-07T04:39:22;9.30;;;3.78;;
69985;SDS011;57328;52.054;5.294;2022-12-07T04:41:50;9.73;;;4.00;;
69985;SDS011;57328;52.054;5.294;2022-12-07T04:44:17;11.45;;;4.22;;
69985;SDS011;57328;52.054;5.294;2022-12-07T04:46:45;8.32;;;3.83;;
69985;SDS011;57328;52.054;5.294;2022-12-07T04:49:12;9.40;;;3.80;;
69985;SDS011;57328;52.054;5.294;2022-12-07T04:51:40;10.45;;;4.57;;
69985;SDS011;57328;52.054;5.294;2022-12-07T04:54:07;10.52;;;4.43;;
69985;SDS011;57328;52.054;5.294;2022-12-07T04:56:34;8.65;;;3.85;;
69985;SDS011;57328;52.054;5.294;2022-12-07T04:59:02;8.68;;;3.97;;
69985;SDS011;57328;52.054;5.294;2022-12-07T05:01:29;8.05;;;3.58;;
69985;SDS011;57328;52.054;5.294;2022-12-07T05:03:57;8.75;;;3.50;;
69985;SDS011;57328;52.054;5.294;2022-12-07T05:06:24;8.23;;;3.33;;
69985;SDS011;57328;52.054;5.294;2022-12-07T05:08:51;8.77;;;3.67;;
69985;SDS011;57328;52.054;5.294;2022-12-07T05:11:18;17.42;;;3.83;;
69985;SDS011;57328;52.054;5.294;2022-12-07T05:14:05;8.82;;;3.42;;
69985;SDS011;57328;52.054;5.294;2022-12-07T05:16:32;8.93;;;3.50;;
69985;SDS011;57328;52.054;5.294;2022-12-07T05:18:59;8.85;;;3.63;;
69985;SDS011;57328;52.054;5.294;2022-12-07T05:21:26;8.13;;;2.95;;
69985;SDS011;57328;52.054;5.294;2022-12-07T05:23:54;7.05;;;3.00;;
69985;SDS011;57328;52.054;5.294;2022-12-07T05:26:21;9.10;;;3.30;;
69985;SDS011;57328;52.054;5.294;2022-12-07T05:28:52;7.60;;;3.13;;
69985;SDS011;57328;52.054;5.294;2022-12-07T05:31:20;6.47;;;3.10;;
69985;SDS011;57328;52.054;5.294;2022-12-07T05:33:47;10.93;;;3.55;;
69985;SDS011;57328;52.054;5.294;2022-12-07T05:36:14;10.00;;;3.65;;
69985;SDS011;57328;52.054;5.294;2022-12-07T05:38:41;9.95;;;3.42;;
69985;SDS011;57328;52.054;5.294;2022-12-07T05:41:08;7.53;;;3.10;;
69985;SDS011;57328;52.054;5.294;2022-12-07T05:43:56;10.35;;;3.35;;
69985;SDS011;57328;52.054;5.294;2022-12-07T05:46:23;8.15;;;3.20;;
69985;SDS011;57328;52.054;5.294;2022-12-07T05:48:50;7.13;;;3.00;;
69985;SDS011;57328;52.054;5.294;2022-12-07T05:51:17;9.07;;;3.10;;
69985;SDS011;57328;52.054;5.294;2022-12-07T05:53:45;10.73;;;3.00;;
69985;SDS011;57328;52.054;5.294;2022-12-07T05:56:12;7.68;;;3.25;;
69985;SDS011;57328;52.054;5.294;2022-12-07T05:58:39;8.82;;;2.90;;
69985;SDS011;57328;52.054;5.294;2022-12-07T06:01:25;10.30;;;2.80;;
69985;SDS011;57328;52.054;5.294;2022-12-07T06:03:52;7.80;;;2.85;;
69985;SDS011;57328;52.054;5.294;2022-12-07T06:06:19;7.85;;;2.92;;
69985;SDS011;57328;52.054;5.294;2022-12-07T06:08:47;8.23;;;2.78;;
69985;SDS011;57328;52.054;5.294;2022-12-07T06:11:14;7.40;;;2.60;;
69985;SDS011;57328;52.054;5.294;2022-12-07T06:14:00;7.03;;;2.60;;
69985;SDS011;57328;52.054;5.294;2022-12-07T06:16:27;9.02;;;3.22;;
69985;SDS011;57328;52.054;5.294;2022-12-07T06:18:54;6.43;;;2.95;;
69985;SDS011;57328;52.054;5.294;2022-12-07T06:21:22;13.43;;;4.53;;
69985;SDS011;57328;52.054;5.294;2022-12-07T06:23:49;12.02;;;3.42;;
69985;SDS011;57328;52.054;5.294;2022-12-07T06:26:16;8.57;;;2.85;;
69985;SDS011;57328;52.054;5.294;2022-12-07T06:28:43;8.85;;;3.13;;
69985;SDS011;57328;52.054;5.294;2022-12-07T06:31:10;7.13;;;3.40;;
69985;SDS011;57328;52.054;5.294;2022-12-07T06:33:39;7.72;;;3.50;;
69985;SDS011;57328;52.054;5.294;2022-12-07T06:36:06;7.28;;;3.22;;
69985;SDS011;57328;52.054;5.294;2022-12-07T06:38:34;10.32;;;3.42;;
69985;SDS011;57328;52.054;5.294;2022-12-07T06:41:01;8.80;;;3.20;;
69985;SDS011;57328;52.054;5.294;2022-12-07T06:43:28;10.88;;;3.50;;
69985;SDS011;57328;52.054;5.294;2022-12-07T06:45:55;8.60;;;3.13;;
69985;SDS011;57328;52.054;5.294;2022-12-07T06:48:23;10.15;;;3.40;;
69985;SDS011;57328;52.054;5.294;2022-12-07T06:50:50;8.02;;;3.30;;
69985;SDS011;57328;52.054;5.294;2022-12-07T06:53:20;8.27;;;3.22;;
69985;SDS011;57328;52.054;5.294;2022-12-07T06:55:47;9.80;;;3.25;;
69985;SDS011;57328;52.054;5.294;2022-12-07T06:58:15;12.13;;;3.58;;
69985;SDS011;57328;52.054;5.294;2022-12-07T07:00:43;9.73;;;3.55;;
69985;SDS011;57328;52.054;5.294;2022-12-07T07:03:10;8.65;;;3.70;;
69985;SDS011;57328;52.054;5.294;2022-12-07T07:05:37;8.98;;;3.30;;
69985;SDS011;57328;52.054;5.294;2022-12-07T07:08:04;11.63;;;3.17;;
69985;SDS011;57328;52.054;5.294;2022-12-07T07:10:48;7.43;;;2.63;;
69985;SDS011;57328;52.054;5.294;2022-12-07T07:13:15;9.13;;;3.03;;
69985;SDS011;57328;52.054;5.294;2022-12-07T07:15:43;11.52;;;3.60;;
69985;SDS011;57328;52.054;5.294;2022-12-07T07:18:10;10.32;;;3.42;;
69985;SDS011;57328;52.054;5.294;2022-12-07T07:20:37;9.13;;;3.53;;
69985;SDS011;57328;52.054;5.294;2022-12-07T07:23:04;13.27;;;4.50;;
69985;SDS011;57328;52.054;5.294;2022-12-07T07:25:32;11.27;;;4.78;;
69985;SDS011;57328;52.054;5.294;2022-12-07T07:27:59;12.00;;;4.22;;
69985;SDS011;57328;52.054;5.294;2022-12-07T07:30:26;10.05;;;3.92;;
69985;SDS011;57328;52.054;5.294;2022-12-07T07:32:57;11.25;;;3.72;;
69985;SDS011;57328;52.054;5.294;2022-12-07T07:35:25;10.65;;;3.60;;
69985;SDS011;57328;52.054;5.294;2022-12-07T07:37:52;11.85;;;4.03;;
69985;SDS011;57328;52.054;5.294;2022-12-07T07:40:19;17.15;;;6.88;;
69985;SDS011;57328;52.054;5.294;2022-12-07T07:42:47;13.02;;;3.70;;
69985;SDS011;57328;52.054;5.294;2022-12-07T07:45:14;12.73;;;4.15;;
69985;SDS011;57328;52.054;5.294;2022-12-07T07:47:42;12.02;;;4.20;;
69985;SDS011;57328;52.054;5.294;2022-12-07T07:50:09;10.90;;;3.58;;
69985;SDS011;57328;52.054;5.294;2022-12-07T07:52:36;10.23;;;3.72;;
69985;SDS011;57328;52.054;5.294;2022-12-07T07:55:03;9.50;;;3.47;;
69985;SDS011;57328;52.054;5.294;2022-12-07T07:57:31;11.35;;;3.20;;
69985;SDS011;57328;52.054;5.294;2022-12-07T07:59:58;7.85;;;2.92;;
69985;SDS011;57328;52.054;5.294;2022-12-07T08:02:25;8.32;;;3.08;;
69985;SDS011;57328;52.054;5.294;2022-12-07T08:04:55;7.03;;;2.80;;
69985;SDS011;57328;52.054;5.294;2022-12-07T08:07:22;6.20;;;2.88;;
69985;SDS011;57328;52.054;5.294;2022-12-07T08:09:49;6.25;;;2.70;;
69985;SDS011;57328;52.054;5.294;2022-12-07T08:12:17;9.65;;;2.70;;
69985;SDS011;57328;52.054;5.294;2022-12-07T08:14:44;6.95;;;2.70;;
69985;SDS011;57328;52.054;5.294;2022-12-07T08:17:11;7.60;;;2.90;;
69985;SDS011;57328;52.054;5.294;2022-12-07T08:19:38;7.90;;;2.70;;
69985;SDS011;57328;52.054;5.294;2022-12-07T08:22:06;7.15;;;2.85;;
69985;SDS011;57328;52.054;5.294;2022-12-07T08:24:33;8.57;;;3.17;;
69985;SDS011;57328;52.054;5.294;2022-12-07T08:27:00;8.18;;;2.80;;
69985;SDS011;57328;52.054;5.294;2022-12-07T08:29:28;7.93;;;2.50;;
69985;SDS011;57328;52.054;5.294;2022-12-07T08:31:55;11.27;;;3.58;;
69985;SDS011;57328;52.054;5.294;2022-12-07T08:34:22;13.25;;;3.70;;
69985;SDS011;57328;52.054;5.294;2022-12-07T08:36:49;11.82;;;4.20;;
69985;SDS011;57328;52.054;5.294;2022-12-07T08:39:16;12.35;;;4.38;;
69985;SDS011;57328;52.054;5.294;2022-12-07T08:41:59;11.40;;;4.10;;
69985;SDS011;57328;52.054;5.294;2022-12-07T08:44:26;9.60;;;3.88;;
69985;SDS011;57328;52.054;5.294;2022-12-07T08:46:54;9.85;;;3.58;;
69985;SDS011;57328;52.054;5.294;2022-12-07T08:49:24;8.70;;;3.40;;
69985;SDS011;57328;52.054;5.294;2022-12-07T08:51:53;10.15;;;3.88;;
69985;SDS011;57328;52.054;5.294;2022-12-07T08:54:21;10.73;;;3.42;;
69985;SDS011;57328;52.054;5.294;2022-12-07T08:56:48;10.45;;;3.42;;
69985;SDS011;57328;52.054;5.294;2022-12-07T08:59:24;10.02;;;3.60;;
69985;SDS011;57328;52.054;5.294;2022-12-07T09:01:51;22.70;;;4.18;;
69985;SDS011;57328;52.054;5.294;2022-12-07T09:04:18;15.85;;;5.50;;
69985;SDS011;57328;52.054;5.294;2022-12-07T09:06:46;13.20;;;4.10;;
69985;SDS011;57328;52.054;5.294;2022-12-07T09:09:14;12.50;;;3.97;;
69985;SDS011;57328;52.054;5.294;2022-12-07T09:11:41;11.35;;;4.03;;
69985;SDS011;57328;52.054;5.294;2022-12-07T09:14:11;10.70;;;4.25;;
69985;SDS011;57328;52.054;5.294;2022-12-07T09:16:38;8.75;;;3.65;;
69985;SDS011;57328;52.054;5.294;2022-12-07T09:19:05;12.60;;;4.22;;
69985;SDS011;57328;52.054;5.294;2022-12-07T09:21:33;10.10;;;3.75;;
69985;SDS011;57328;52.054;5.294;2022-12-07T09:24:00;10.02;;;3.40;;
69985;SDS011;57328;52.054;5.294;2022-12-07T09:26:27;9.95;;;3.88;;
69985;SDS011;57328;52.054;5.294;2022-12-07T09:28:54;10.43;;;2.80;;
69985;SDS011;57328;52.054;5.294;2022-12-07T09:31:21;10.50;;;2.22;;
69985;SDS011;57328;52.054;5.294;2022-12-07T09:33:54;9.45;;;2.95;;
69985;SDS011;57328;52.054;5.294;2022-12-07T09:36:22;10.07;;;3.10;;
69985;SDS011;57328;52.054;5.294;2022-12-07T09:38:49;9.27;;;3.13;;
69985;SDS011;57328;52.054;5.294;2022-12-07T09:41:16;10.32;;;3.08;;
69985;SDS011;57328;52.054;5.294;2022-12-07T09:43:44;12.13;;;3.00;;
69985;SDS011;57328;52.054;5.294;2022-12-07T09:46:13;6.45;;;2.33;;
69985;SDS011;57328;52.054;5.294;2022-12-07T09:48:42;6.78;;;2.25;;
69985;SDS011;57328;52.054;5.294;2022-12-07T09:51:23;7.25;;;2.05;;
69985;SDS011;57328;52.054;5.294;2022-12-07T09:53:52;6.38;;;1.88;;
69985;SDS011;57328;52.054;5.294;2022-12-07T09:59:05;8.02;;;1.80;;
69985;SDS011;57328;52.054;5.294;2022-12-07T10:01:32;9.10;;;2.30;;
69985;SDS011;57328;52.054;5.294;2022-12-07T10:04:05;6.70;;;1.60;;
69985;SDS011;57328;52.054;5.294;2022-12-07T10:06:33;9.00;;;1.58;;
69985;SDS011;57328;52.054;5.294;2022-12-07T10:09:00;6.97;;;1.40;;
69985;SDS011;57328;52.054;5.294;2022-12-07T10:11:28;4.78;;;1.40;;
69985;SDS011;57328;52.054;5.294;2022-12-07T10:13:55;6.05;;;1.70;;
69985;SDS011;57328;52.054;5.294;2022-12-07T10:19:37;6.63;;;1.45;;
69985;SDS011;57328;52.054;5.294;2022-12-07T10:22:14;6.20;;;1.30;;
69985;SDS011;57328;52.054;5.294;2022-12-07T10:24:42;11.07;;;1.88;;
69985;SDS011;57328;52.054;5.294;2022-12-07T10:27:16;9.05;;;1.42;;
69985;SDS011;57328;52.054;5.294;2022-12-07T10:29:47;6.40;;;1.50;;
69985;SDS011;57328;52.054;5.294;2022-12-07T10:34:42;4.78;;;1.45;;
69985;SDS011;57328;52.054;5.294;2022-12-07T10:42:30;8.10;;;1.45;;
69985;SDS011;57328;52.054;5.294;2022-12-07T10:53:13;8.20;;;1.50;;
69985;SDS011;57328;52.054;5.294;2022-12-07T11:05:55;8.38;;;1.60;;
69985;SDS011;57328;52.054;5.294;2022-12-07T11:18:27;3.83;;;1.20;;
69985;SDS011;57328;52.054;5.294;2022-12-07T11:21:04;17.10;;;2.22;;
69985;SDS011;57328;52.054;5.294;2022-12-07T11:23:45;6.72;;;1.60;;
69985;SDS011;57328;52.054;5.294;2022-12-07T11:26:25;4.90;;;1.40;;
69985;SDS011;57328;52.054;5.294;2022-12-07T11:34:21;6.18;;;1.15;;
69985;SDS011;57328;52.054;5.294;2022-12-07T11:36:54;2.42;;;0.95;;
69985;SDS011;57328;52.054;5.294;2022-12-07T11:41:50;6.80;;;1.20;;
69985;SDS011;57328;52.054;5.294;2022-12-07T11:44:33;6.80;;;1.10;;
69985;SDS011;57328;52.054;5.294;2022-12-07T11:47:10;5.95;;;1.02;;
69985;SDS011;57328;52.054;5.294;2022-12-07T11:49:47;6.72;;;1.25;;
69985;SDS011;57328;52.054;5.294;2022-12-07T11:52:29;6.97;;;1.20;;
69985;SDS011;57328;52.054;5.294;2022-12-07T11:54:57;7.65;;;1.00;;
69985;SDS011;57328;52.054;5.294;2022-12-07T11:57:44;4.45;;;1.02;;
69985;SDS011;57328;52.054;5.294;2022-12-07T12:00:14;5.55;;;1.10;;
69985;SDS011;57328;52.054;5.294;2022-12-07T12:05:27;7.38;;;1.13;;
69985;SDS011;57328;52.054;5.294;2022-12-07T12:08:00;3.95;;;0.90;;
69985;SDS011;57328;52.054;5.294;2022-12-07T12:11:14;4.57;;;0.95;;
69985;SDS011;57328;52.054;5.294;2022-12-07T12:19:21;5.25;;;1.10;;
69985;SDS011;57328;52.054;5.294;2022-12-07T12:21:49;9.20;;;1.20;;
69985;SDS011;57328;52.054;5.294;2022-12-07T12:24:25;9.07;;;1.65;;
69985;SDS011;57328;52.054;5.294;2022-12-07T12:27:00;5.53;;;1.30;;
69985;SDS011;57328;52.054;5.294;2022-12-07T12:29:33;4.60;;;1.42;;
69985;SDS011;57328;52.054;5.294;2022-12-07T12:34:38;4.57;;;1.13;;
69985;SDS011;57328;52.054;5.294;2022-12-07T12:42:44;4.30;;;1.23;;
69985;SDS011;57328;52.054;5.294;2022-12-07T12:45:25;7.13;;;1.30;;
69985;SDS011;57328;52.054;5.294;2022-12-07T12:50:24;4.60;;;1.10;;
69985;SDS011;57328;52.054;5.294;2022-12-07T12:55:19;4.45;;;1.02;;
69985;SDS011;57328;52.054;5.294;2022-12-07T12:57:49;23.48;;;8.82;;
69985;SDS011;57328;52.054;5.294;2022-12-07T13:00:34;6.60;;;1.30;;
69985;SDS011;57328;52.054;5.294;2022-12-07T13:03:01;6.25;;;1.13;;
69985;SDS011;57328;52.054;5.294;2022-12-07T13:05:35;5.35;;;1.50;;
69985;SDS011;57328;52.054;5.294;2022-12-07T13:08:02;7.55;;;1.75;;
69985;SDS011;57328;52.054;5.294;2022-12-07T13:10:39;4.78;;;1.25;;
69985;SDS011;57328;52.054;5.294;2022-12-07T13:21:02;5.13;;;1.17;;
69985;SDS011;57328;52.054;5.294;2022-12-07T13:28:58;3.45;;;1.00;;
69985;SDS011;57328;52.054;5.294;2022-12-07T13:33:58;6.32;;;1.23;;
69985;SDS011;57328;52.054;5.294;2022-12-07T13:36:26;5.82;;;1.10;;
69985;SDS011;57328;52.054;5.294;2022-12-07T13:38:54;8.70;;;1.27;;
69985;SDS011;57328;52.054;5.294;2022-12-07T13:41:23;6.47;;;1.35;;
69985;SDS011;57328;52.054;5.294;2022-12-07T13:43:58;7.20;;;1.23;;
69985;SDS011;57328;52.054;5.294;2022-12-07T13:46:32;5.90;;;1.50;;
69985;SDS011;57328;52.054;5.294;2022-12-07T13:49:01;5.50;;;1.70;;
69985;SDS011;57328;52.054;5.294;2022-12-07T13:51:29;4.45;;;1.30;;
69985;SDS011;57328;52.054;5.294;2022-12-07T13:54:01;6.20;;;1.40;;
69985;SDS011;57328;52.054;5.294;2022-12-07T13:56:35;5.55;;;1.20;;
69985;SDS011;57328;52.054;5.294;2022-12-07T13:59:02;9.10;;;2.83;;
69985;SDS011;57328;52.054;5.294;2022-12-07T14:01:31;7.18;;;1.58;;
69985;SDS011;57328;52.054;5.294;2022-12-07T14:04:41;5.20;;;1.80;;
69985;SDS011;57328;52.054;5.294;2022-12-07T14:06:50;4.93;;;1.45;;
69985;SDS011;57328;52.054;5.294;2022-12-07T14:09:19;6.10;;;1.00;;
69985;SDS011;57328;52.054;5.294;2022-12-07T14:11:50;11.15;;;2.33;;
69985;SDS011;57328;52.054;5.294;2022-12-07T14:14:25;12.32;;;2.25;;
69985;SDS011;57328;52.054;5.294;2022-12-07T14:17:08;6.60;;;2.10;;
69985;SDS011;57328;52.054;5.294;2022-12-07T14:19:43;10.95;;;1.65;;
69985;SDS011;57328;52.054;5.294;2022-12-07T14:22:21;6.28;;;1.38;;
69985;SDS011;57328;52.054;5.294;2022-12-07T14:24:49;9.18;;;2.35;;
69985;SDS011;57328;52.054;5.294;2022-12-07T14:27:17;5.68;;;1.30;;
69985;SDS011;57328;52.054;5.294;2022-12-07T14:29:45;5.35;;;1.30;;
69985;SDS011;57328;52.054;5.294;2022-12-07T14:32:21;8.00;;;1.40;;
69985;SDS011;57328;52.054;5.294;2022-12-07T14:34:54;5.80;;;1.20;;
69985;SDS011;57328;52.054;5.294;2022-12-07T14:37:21;6.88;;;1.80;;
69985;SDS011;57328;52.054;5.294;2022-12-07T14:39:49;4.50;;;1.08;;
69985;SDS011;57328;52.054;5.294;2022-12-07T14:42:16;5.80;;;1.35;;
69985;SDS011;57328;52.054;5.294;2022-12-07T14:44:43;7.10;;;1.88;;
69985;SDS011;57328;52.054;5.294;2022-12-07T14:47:11;6.40;;;1.70;;
69985;SDS011;57328;52.054;5.294;2022-12-07T14:52:28;7.57;;;1.88;;
69985;SDS011;57328;52.054;5.294;2022-12-07T14:55:19;3.72;;;1.00;;
69985;SDS011;57328;52.054;5.294;2022-12-07T14:57:47;3.05;;;0.88;;
69985;SDS011;57328;52.054;5.294;2022-12-07T15:00:15;6.80;;;0.98;;
69985;SDS011;57328;52.054;5.294;2022-12-07T15:02:44;4.82;;;1.35;;
69985;SDS011;57328;52.054;5.294;2022-12-07T15:05:11;3.10;;;1.00;;
69985;SDS011;57328;52.054;5.294;2022-12-07T15:07:42;3.28;;;1.20;;
69985;SDS011;57328;52.054;5.294;2022-12-07T15:10:17;9.95;;;2.58;;
69985;SDS011;57328;52.054;5.294;2022-12-07T15:12:50;4.20;;;1.30;;
69985;SDS011;57328;52.054;5.294;2022-12-07T15:15:17;8.82;;;1.90;;
69985;SDS011;57328;52.054;5.294;2022-12-07T15:17:44;5.07;;;0.82;;
69985;SDS011;57328;52.054;5.294;2022-12-07T15:20:12;2.47;;;1.00;;
69985;SDS011;57328;52.054;5.294;2022-12-07T15:22:43;3.75;;;0.90;;
69985;SDS011;57328;52.054;5.294;2022-12-07T15:25:13;3.55;;;1.25;;
69985;SDS011;57328;52.054;5.294;2022-12-07T15:27:41;3.95;;;1.05;;
69985;SDS011;57328;52.054;5.294;2022-12-07T15:30:08;5.45;;;1.80;;
69985;SDS011;57328;52.054;5.294;2022-12-07T15:32:35;3.80;;;1.33;;
69985;SDS011;57328;52.054;5.294;2022-12-07T15:35:03;8.07;;;3.35;;
69985;SDS011;57328;52.054;5.294;2022-12-07T15:37:30;10.55;;;4.20;;
69985;SDS011;57328;52.054;5.294;2022-12-07T15:39:58;20.27;;;9.55;;
69985;SDS011;57328;52.054;5.294;2022-12-07T15:42:32;7.70;;;1.90;;
69985;SDS011;57328;52.054;5.294;2022-12-07T15:44:59;5.32;;;1.27;;
69985;SDS011;57328;52.054;5.294;2022-12-07T15:47:37;2.67;;;1.17;;
69985;SDS011;57328;52.054;5.294;2022-12-07T15:50:25;4.47;;;1.40;;
69985;SDS011;57328;52.054;5.294;2022-12-07T15:52:52;6.18;;;2.20;;
69985;SDS011;57328;52.054;5.294;2022-12-07T15:55:19;6.47;;;1.27;;
69985;SDS011;57328;52.054;5.294;2022-12-07T15:57:47;3.60;;;1.00;;
69985;SDS011;57328;52.054;5.294;2022-12-07T16:00:15;3.70;;;1.08;;
69985;SDS011;57328;52.054;5.294;2022-12-07T16:02:42;4.88;;;1.50;;
69985;SDS011;57328;52.054;5.294;2022-12-07T16:05:10;4.00;;;1.17;;
69985;SDS011;57328;52.054;5.294;2022-12-07T16:07:37;4.10;;;1.35;;
69985;SDS011;57328;52.054;5.294;2022-12-07T16:10:04;4.28;;;1.75;;
69985;SDS011;57328;52.054;5.294;2022-12-07T16:12:32;5.07;;;1.90;;
69985;SDS011;57328;52.054;5.294;2022-12-07T16:14:59;3.45;;;1.50;;
69985;SDS011;57328;52.054;5.294;2022-12-07T16:17:27;5.68;;;1.65;;
69985;SDS011;57328;52.054;5.294;2022-12-07T16:19:54;6.20;;;1.83;;
69985;SDS011;57328;52.054;5.294;2022-12-07T16:22:21;5.07;;;1.70;;
69985;SDS011;57328;52.054;5.294;2022-12-07T16:24:48;5.97;;;1.40;;
69985;SDS011;57328;52.054;5.294;2022-12-07T16:27:15;4.57;;;1.35;;
69985;SDS011;57328;52.054;5.294;2022-12-07T16:29:42;5.30;;;1.48;;
69985;SDS011;57328;52.054;5.294;2022-12-07T16:32:09;6.55;;;1.63;;
69985;SDS011;57328;52.054;5.294;2022-12-07T16:34:37;4.30;;;1.55;;
69985;SDS011;57328;52.054;5.294;2022-12-07T16:37:04;6.60;;;1.60;;
69985;SDS011;57328;52.054;5.294;2022-12-07T16:39:32;4.93;;;2.03;;
69985;SDS011;57328;52.054;5.294;2022-12-07T16:41:59;7.68;;;2.03;;
69985;SDS011;57328;52.054;5.294;2022-12-07T16:44:26;5.10;;;1.42;;
69985;SDS011;57328;52.054;5.294;2022-12-07T16:46:54;8.13;;;1.85;;
69985;SDS011;57328;52.054;5.294;2022-12-07T16:49:21;5.78;;;1.65;;
69985;SDS011;57328;52.054;5.294;2022-12-07T16:54:37;7.55;;;2.13;;
69985;SDS011;57328;52.054;5.294;2022-12-07T16:57:04;7.85;;;2.20;;
69985;SDS011;57328;52.054;5.294;2022-12-07T16:59:31;6.25;;;3.60;;
69985;SDS011;57328;52.054;5.294;2022-12-07T17:01:59;6.97;;;2.60;;